Time;durP1;ratioP1;P1;durP2;ratioP2;P2;SDS_P1;SDS_P2;PMS_P1;PMS_P2;Temp;Humidity;BMP_temperature;BMP_pressure;BME280_temperature;BME280_humidity;BME280_pressure;Samples;Min_cycle;Max_cycle;Signal;HPM_P1;HPM_P2
2021/05/02 00:09:41;;;;;;;9.20;5.12;;;9.00;99.90;;;;;;6724869;88;20220;-75
2021/05/02 00:19:42;;;;;;;11.68;6.07;;;8.80;99.90;;;;;;6725525;88;20203;-75
2021/05/02 00:29:44;;;;;;;12.27;6.35;;;8.60;99.90;;;;;;6743065;88;20221;-75
2021/05/02 00:39:46;;;;;;;9.70;6.25;;;8.40;99.90;;;;;;6708189;88;20214;-77
2021/05/02 00:49:54;;;;;;;11.30;7.28;;;8.30;99.90;;;;;;6718242;88;20698;-76
2021/05/02 01:00:05;;;;;;;13.05;7.43;;;8.10;99.90;;;;;;6725074;88;20205;-75
2021/05/02 01:10:15;;;;;;;14.65;8.15;;;8.00;99.90;;;;;;6724771;88;20261;-76
2021/05/02 01:20:15;;;;;;;15.25;7.80;;;8.00;99.90;;;;;;6724672;88;21080;-76
2021/05/02 01:30:16;;;;;;;12.98;8.38;;;7.90;99.90;;;;;;6725962;88;20225;-75
2021/05/02 01:40:18;;;;;;;15.70;8.05;;;7.80;99.90;;;;;;6726501;88;20237;-75
2021/05/02 01:50:19;;;;;;;14.30;8.15;;;7.70;99.90;;;;;;6722835;88;20767;-76
2021/05/02 02:00:23;;;;;;;15.63;8.32;;;7.50;99.90;;;;;;6719368;88;20376;-76
2021/05/02 02:10:25;;;;;;;13.50;8.55;;;7.40;99.90;;;;;;6720329;88;20615;-76
2021/05/02 02:20:28;;;;;;;16.15;8.57;;;7.10;99.90;;;;;;6720147;88;20238;-76
2021/05/02 02:30:31;;;;;;;13.27;8.60;;;7.10;99.90;;;;;;6719070;88;20196;-75
2021/05/02 02:40:36;;;;;;;14.93;8.60;;;7.10;99.90;;;;;;6719678;88;20166;-76
2021/05/02 02:50:40;;;;;;;18.02;9.30;;;6.90;99.90;;;;;;6718326;88;20283;-75
2021/05/02 03:00:41;;;;;;;17.23;9.13;;;6.80;99.90;;;;;;6719409;88;20304;-76
2021/05/02 03:10:44;;;;;;;19.02;10.02;;;6.70;99.90;;;;;;6714839;88;20356;-76
2021/05/02 03:20:50;;;;;;;18.60;10.75;;;6.70;99.90;;;;;;6718982;88;20178;-76
2021/05/02 03:30:51;;;;;;;19.30;11.17;;;6.70;99.90;;;;;;6717143;88;20177;-75
2021/05/02 03:40:54;;;;;;;18.90;11.00;;;6.70;99.90;;;;;;6724315;88;20218;-74
2021/05/02 03:50:54;;;;;;;18.17;10.65;;;6.70;99.90;;;;;;6726368;88;20565;-75
2021/05/02 04:00:55;;;;;;;18.30;10.88;;;6.60;99.90;;;;;;6722176;88;20601;-75
2021/05/02 04:10:55;;;;;;;19.95;11.15;;;6.60;99.90;;;;;;6730979;88;20662;-76
2021/05/02 04:20:56;;;;;;;21.25;11.18;;;6.60;99.90;;;;;;6722677;88;20667;-74
2021/05/02 04:30:56;;;;;;;21.95;12.15;;;6.60;99.90;;;;;;6724394;88;20230;-74
2021/05/02 04:40:57;;;;;;;17.87;10.98;;;6.70;99.90;;;;;;6723797;88;20665;-74
2021/05/02 04:50:58;;;;;;;18.23;11.60;;;6.90;99.90;;;;;;6722951;88;20201;-74
2021/05/02 05:00:59;;;;;;;21.77;11.48;;;6.80;99.90;;;;;;6727651;88;20207;-75
2021/05/02 05:11:00;;;;;;;23.45;13.30;;;6.70;99.90;;;;;;6727963;88;20204;-74
2021/05/02 05:21:00;;;;;;;23.92;13.60;;;6.80;99.90;;;;;;6727515;88;20665;-75
2021/05/02 05:31:01;;;;;;;25.17;13.30;;;7.00;99.90;;;;;;6736667;88;20192;-75
2021/05/02 05:41:01;;;;;;;25.37;13.20;;;7.00;99.90;;;;;;6723628;88;20402;-74
2021/05/02 05:51:02;;;;;;;22.17;12.07;;;7.10;99.90;;;;;;6717562;88;20220;-75
2021/05/02 06:01:03;;;;;;;20.20;11.00;;;7.40;99.90;;;;;;6714831;88;20182;-76
2021/05/02 06:11:03;;;;;;;17.85;10.65;;;7.60;99.90;;;;;;6714427;88;20175;-76
2021/05/02 06:21:04;;;;;;;19.75;9.90;;;7.80;99.90;;;;;;6715670;88;20185;-76
2021/05/02 06:31:04;;;;;;;17.92;9.02;;;7.70;99.90;;;;;;6723795;88;20312;-76
2021/05/02 06:41:06;;;;;;;17.42;8.70;;;8.10;99.90;;;;;;6718665;88;20196;-78
2021/05/02 06:51:06;;;;;;;12.10;5.82;;;8.10;99.90;;;;;;6721806;88;20234;-75
2021/05/02 07:01:07;;;;;;;14.30;6.45;;;9.10;99.90;;;;;;6712419;88;20255;-77
2021/05/02 07:11:08;;;;;;;9.32;3.80;;;9.20;99.90;;;;;;6716481;88;20199;-76
2021/05/02 07:21:09;;;;;;;8.15;3.70;;;8.50;99.90;;;;;;6719013;88;20684;-75
2021/05/02 07:31:11;;;;;;;8.07;3.20;;;8.10;99.90;;;;;;6709338;88;20211;-76
2021/05/02 07:41:12;;;;;;;6.85;2.40;;;8.20;99.90;;;;;;6717409;88;20189;-78
2021/05/02 07:51:13;;;;;;;5.50;2.30;;;8.10;99.90;;;;;;6719430;88;20200;-76
2021/05/02 08:01:13;;;;;;;6.80;2.67;;;8.30;99.90;;;;;;6711244;88;20216;-75
2021/05/02 08:11:14;;;;;;;6.37;2.90;;;9.10;99.90;;;;;;6714833;88;20222;-75
2021/05/02 08:21:15;;;;;;;4.72;2.47;;;9.20;99.90;;;;;;6716683;88;20273;-74
2021/05/02 08:31:16;;;;;;;5.20;1.95;;;9.70;99.90;;;;;;6716714;88;20611;-76
2021/05/02 08:41:16;;;;;;;5.25;1.65;;;10.00;99.90;;;;;;6714973;88;20238;-76
2021/05/02 08:51:17;;;;;;;4.82;1.42;;;11.10;99.90;;;;;;6725287;88;20230;-74
2021/05/02 09:01:29;;;;;;;4.72;2.17;;;11.70;98.30;;;;;;6727395;88;20292;-74
2021/05/02 09:11:43;;;;;;;5.50;2.42;;;11.60;98.60;;;;;;6719314;88;20257;-77
2021/05/02 09:21:44;;;;;;;4.50;1.48;;;10.50;99.90;;;;;;6715552;88;20185;-74
2021/05/02 09:31:45;;;;;;;5.18;1.70;;;10.50;98.40;;;;;;6730153;88;20204;-75
2021/05/02 09:41:46;;;;;;;4.43;1.80;;;10.00;99.60;;;;;;6708664;88;20211;-76
2021/05/02 09:51:54;;;;;;;3.95;1.92;;;10.40;99.90;;;;;;6721557;88;20215;-75
2021/05/02 10:02:18;;;;;;;5.28;2.00;;;10.70;98.50;;;;;;6718117;88;20219;-75
2021/05/02 10:12:19;;;;;;;5.12;2.05;;;12.40;96.30;;;;;;6712470;88;20208;-74
2021/05/02 10:22:21;;;;;;;6.47;2.20;;;12.50;93.20;;;;;;6704689;88;20190;-75
2021/05/02 10:32:23;;;;;;;3.90;2.00;;;11.10;94.30;;;;;;6705006;88;20210;-75
2021/05/02 10:42:36;;;;;;;6.18;2.25;;;11.10;95.80;;;;;;6715579;88;20347;-77
2021/05/02 10:52:43;;;;;;;4.22;2.22;;;12.70;92.10;;;;;;6719817;88;20255;-77
2021/05/02 11:02:45;;;;;;;5.65;2.05;;;12.40;91.80;;;;;;6718543;88;20207;-76
2021/05/02 11:12:49;;;;;;;7.22;2.05;;;11.50;92.60;;;;;;6716983;88;20962;-77
2021/05/02 11:22:50;;;;;;;4.32;1.77;;;11.70;92.50;;;;;;6717833;88;20207;-75
2021/05/02 11:32:51;;;;;;;6.35;2.03;;;12.20;90.30;;;;;;6721427;88;20197;-76
2021/05/02 11:43:11;;;;;;;5.60;1.90;;;12.30;89.90;;;;;;6715263;88;20201;-77
2021/05/02 11:53:12;;;;;;;4.43;1.80;;;12.40;86.70;;;;;;6717365;88;20190;-77
2021/05/02 12:03:17;;;;;;;4.53;1.55;;;13.60;82.80;;;;;;6719274;88;20202;-76
2021/05/02 12:13:34;;;;;;;6.67;1.60;;;13.20;83.40;;;;;;6715689;88;20208;-77
2021/05/02 12:23:35;;;;;;;3.65;1.80;;;13.00;81.60;;;;;;6722364;88;20519;-77
2021/05/02 12:33:37;;;;;;;4.47;1.77;;;12.90;81.30;;;;;;6717674;88;20221;-77
2021/05/02 12:43:38;;;;;;;4.15;1.70;;;12.70;81.70;;;;;;6721836;88;20197;-77
2021/05/02 12:53:42;;;;;;;2.35;1.50;;;13.20;81.00;;;;;;6723184;88;20203;-75
2021/05/02 13:04:14;;;;;;;4.20;1.60;;;13.20;77.30;;;;;;6721143;88;20688;-77
2021/05/02 13:14:23;;;;;;;2.85;1.60;;;13.10;78.80;;;;;;6711841;88;20318;-77
2021/05/02 13:24:23;;;;;;;3.50;1.30;;;12.70;80.10;;;;;;6717850;88;20182;-77
2021/05/02 13:34:29;;;;;;;3.85;1.50;;;12.20;79.20;;;;;;6718864;88;20650;-76
2021/05/02 13:44:30;;;;;;;3.87;1.40;;;12.80;77.30;;;;;;6723322;88;20210;-76
2021/05/02 13:54:30;;;;;;;4.37;1.50;;;13.10;77.40;;;;;;6724018;88;20177;-77
2021/05/02 14:04:31;;;;;;;4.65;1.65;;;14.10;76.40;;;;;;6726397;88;20247;-76
2021/05/02 14:14:31;;;;;;;5.82;1.60;;;15.00;74.00;;;;;;6726974;88;20201;-75
2021/05/02 14:24:32;;;;;;;2.90;1.60;;;13.50;74.80;;;;;;6733082;88;20194;-76
2021/05/02 14:34:34;;;;;;;2.62;1.50;;;12.40;78.00;;;;;;6723278;88;20200;-76
2021/05/02 14:44:36;;;;;;;4.28;1.90;;;13.30;75.60;;;;;;6720626;88;20209;-75
2021/05/02 14:54:37;;;;;;;5.53;1.90;;;14.20;73.20;;;;;;6720341;88;20213;-76
2021/05/02 15:04:38;;;;;;;3.85;1.62;;;14.40;74.00;;;;;;6717097;88;20230;-77
2021/05/02 15:14:38;;;;;;;6.97;1.90;;;14.20;75.50;;;;;;6717619;88;20251;-76
2021/05/02 15:24:39;;;;;;;3.17;1.70;;;13.10;75.20;;;;;;6721850;88;21257;-76
2021/05/02 15:34:40;;;;;;;5.40;1.83;;;13.00;75.30;;;;;;6704838;88;20216;-76
2021/05/02 15:44:40;;;;;;;3.28;1.48;;;12.70;76.80;;;;;;6703223;88;20581;-75
2021/05/02 15:54:41;;;;;;;2.63;1.40;;;13.00;72.80;;;;;;6714448;88;20242;-75
2021/05/02 16:04:42;;;;;;;3.72;1.90;;;12.50;75.20;;;;;;6736066;88;20515;-76
2021/05/02 16:14:43;;;;;;;4.32;2.17;;;12.60;77.90;;;;;;6733780;88;20194;-76
2021/05/02 16:24:43;;;;;;;2.60;1.75;;;12.00;80.40;;;;;;6714963;88;20273;-76
2021/05/02 16:34:44;;;;;;;3.83;2.10;;;11.90;80.40;;;;;;6705753;88;20243;-75
2021/05/02 16:44:44;;;;;;;4.45;1.85;;;11.40;83.50;;;;;;6721613;88;20202;-75
2021/05/02 16:54:45;;;;;;;4.57;1.50;;;10.80;89.80;;;;;;6726779;88;20321;-75
2021/05/02 17:04:46;;;;;;;2.35;1.42;;;10.80;92.00;;;;;;6728157;88;20234;-75
2021/05/02 17:14:46;;;;;;;3.95;1.70;;;11.00;92.70;;;;;;6727192;88;20210;-76
2021/05/02 17:24:47;;;;;;;3.08;1.20;;;10.80;91.50;;;;;;6724782;88;20261;-75
2021/05/02 17:34:48;;;;;;;2.92;1.33;;;11.80;87.60;;;;;;6744311;88;20269;-77
2021/05/02 17:44:48;;;;;;;4.30;1.90;;;11.10;89.80;;;;;;6736030;88;20236;-76
2021/05/02 17:54:53;;;;;;;3.83;1.80;;;10.60;91.80;;;;;;6736098;88;20196;-75
2021/05/02 18:04:53;;;;;;;5.45;1.67;;;10.50;93.40;;;;;;6736381;88;20510;-76
2021/05/02 18:14:54;;;;;;;4.15;1.83;;;10.30;95.40;;;;;;6730730;88;20245;-76
2021/05/02 18:24:54;;;;;;;3.50;1.45;;;10.30;95.80;;;;;;6733529;88;20181;-77
2021/05/02 18:34:55;;;;;;;5.45;1.50;;;10.10;94.60;;;;;;6725211;88;20197;-76
2021/05/02 18:44:56;;;;;;;7.55;1.90;;;10.00;93.60;;;;;;6730282;88;20212;-76
2021/05/02 18:54:56;;;;;;;2.87;1.70;;;9.70;94.60;;;;;;6726400;88;20181;-76
2021/05/02 19:04:57;;;;;;;2.90;1.70;;;9.60;95.90;;;;;;6724970;88;21029;-77
2021/05/02 19:14:58;;;;;;;5.55;2.12;;;9.30;97.00;;;;;;6724808;88;20703;-80
2021/05/02 19:24:58;;;;;;;3.25;1.80;;;9.00;98.00;;;;;;6720941;88;20277;-80
2021/05/02 19:35:02;;;;;;;3.95;2.12;;;8.90;98.90;;;;;;6720973;88;20272;-78
2021/05/02 19:45:04;;;;;;;4.37;2.20;;;8.80;99.60;;;;;;6725109;88;20215;-77
2021/05/02 19:55:06;;;;;;;4.40;2.30;;;8.60;99.90;;;;;;6725892;88;20174;-77
2021/05/02 20:05:09;;;;;;;5.25;2.75;;;8.50;99.90;;;;;;6726936;88;20205;-77
2021/05/02 20:15:10;;;;;;;4.32;2.80;;;8.20;99.90;;;;;;6724223;88;20177;-76
2021/05/02 20:25:11;;;;;;;6.47;2.80;;;8.10;99.90;;;;;;6728454;88;20254;-77
2021/05/02 20:35:16;;;;;;;5.12;2.87;;;8.00;99.90;;;;;;6724523;88;20203;-78
2021/05/02 20:45:17;;;;;;;4.50;2.87;;;8.00;99.90;;;;;;6727158;88;20235;-76
2021/05/02 20:55:18;;;;;;;6.37;2.53;;;8.10;99.90;;;;;;6726991;88;20262;-77
2021/05/02 21:05:20;;;;;;;7.40;3.00;;;8.30;99.90;;;;;;6726235;88;20216;-77
2021/05/02 21:15:20;;;;;;;5.47;3.10;;;8.20;99.90;;;;;;6724400;88;20274;-77
2021/05/02 21:25:21;;;;;;;4.50;2.97;;;8.00;99.90;;;;;;6720925;88;20255;-75
2021/05/02 21:35:21;;;;;;;8.00;3.30;;;7.80;99.90;;;;;;6722944;88;20238;-75
2021/05/02 21:45:22;;;;;;;5.40;3.22;;;7.40;99.90;;;;;;6724533;88;20196;-75
2021/05/02 21:55:22;;;;;;;5.90;3.22;;;7.40;99.90;;;;;;6724274;88;20208;-76
2021/05/02 22:05:23;;;;;;;4.78;3.28;;;7.40;99.90;;;;;;6725264;88;20532;-76
2021/05/02 22:15:25;;;;;;;4.65;2.75;;;7.10;99.90;;;;;;6725010;88;20205;-77
2021/05/02 22:25:26;;;;;;;6.32;3.03;;;7.00;99.90;;;;;;6725064;88;20211;-76
2021/05/02 22:35:26;;;;;;;5.68;2.90;;;7.10;99.90;;;;;;6724059;88;20217;-76
2021/05/02 22:45:27;;;;;;;5.03;3.00;;;7.00;99.90;;;;;;6723471;88;20528;-76
2021/05/02 22:55:28;;;;;;;6.05;3.08;;;6.90;99.90;;;;;;6724453;88;20242;-75
2021/05/02 23:05:28;;;;;;;5.70;2.78;;;6.70;99.90;;;;;;6724582;88;20263;-76
2021/05/02 23:15:29;;;;;;;5.87;3.10;;;6.40;99.90;;;;;;6730483;88;20612;-76
2021/05/02 23:25:30;;;;;;;5.45;3.28;;;6.50;99.90;;;;;;6727780;88;20642;-76
2021/05/02 23:35:31;;;;;;;6.12;2.92;;;6.20;99.90;;;;;;6731146;88;20198;-76
2021/05/02 23:45:32;;;;;;;6.20;3.15;;;6.10;99.90;;;;;;6725382;88;20621;-76
2021/05/02 23:55:32;;;;;;;4.75;2.83;;;5.90;99.90;;;;;;6724507;88;20189;-75
